createdAt,value
2023-02-03T00:00:20.457Z,55.10
2023-02-03T00:07:17.589Z,56.90
2023-02-03T00:10:05.317Z,57.70
2023-02-03T00:12:35.454Z,57.00
2023-02-03T00:15:03.452Z,56.00
2023-02-03T00:17:33.537Z,55.50
2023-02-03T00:20:01.451Z,53.40
2023-02-03T00:22:29.393Z,52.50
2023-02-03T00:24:57.327Z,52.30
2023-02-03T00:27:25.323Z,52.30
2023-02-03T00:29:54.659Z,51.40
2023-02-03T00:32:22.854Z,52.80
2023-02-03T00:34:51.098Z,53.70
2023-02-03T00:37:19.055Z,53.40
2023-02-03T00:39:47.539Z,53.20
2023-02-03T00:42:15.850Z,52.10
2023-02-03T00:44:45.302Z,50.30
2023-02-03T00:47:15.786Z,48.70
2023-02-03T00:49:43.754Z,49.20
2023-02-03T00:52:11.784Z,48.00
2023-02-03T00:54:39.824Z,47.70
2023-02-03T00:57:07.761Z,48.50
2023-02-03T00:59:35.763Z,47.90
2023-02-03T01:02:04.155Z,49.00
2023-02-03T01:04:33.472Z,50.10
2023-02-03T01:07:01.554Z,50.40
2023-02-03T01:09:33.886Z,50.80
2023-02-03T01:12:01.989Z,51.20
2023-02-03T01:14:30.559Z,52.00
2023-02-03T01:16:59.071Z,51.10
2023-02-03T01:19:27.132Z,51.70
2023-02-03T01:21:56.402Z,52.60
2023-02-03T01:24:24.356Z,52.90
2023-02-03T01:26:52.279Z,52.60
2023-02-03T01:29:20.186Z,53.10
2023-02-03T01:31:50.451Z,54.20
2023-02-03T01:34:18.587Z,54.70
2023-02-03T01:36:47.054Z,53.90
2023-02-03T01:39:16.349Z,53.00
2023-02-03T01:41:46.499Z,52.30
2023-02-03T01:44:49.323Z,51.60
2023-02-03T01:47:25.647Z,51.10
2023-02-03T01:49:58.795Z,50.60
2023-02-03T01:52:27.794Z,50.40
2023-02-03T01:54:59.234Z,49.30
2023-02-03T01:57:33.604Z,50.10
2023-02-03T02:00:03.510Z,50.70
2023-02-03T02:02:42.831Z,50.60
2023-02-03T02:05:18.568Z,49.80
2023-02-03T02:07:48.745Z,48.60
2023-02-03T02:10:18.417Z,47.10
2023-02-03T02:12:46.405Z,48.40
2023-02-03T02:15:14.875Z,49.10
2023-02-03T02:17:57.387Z,49.00
2023-02-03T02:20:35.447Z,48.60
2023-02-03T02:23:25.275Z,48.50
2023-02-03T02:26:15.858Z,49.50
2023-02-03T02:29:07.859Z,49.50
2023-02-03T02:31:54.803Z,50.00
2023-02-03T02:34:31.391Z,48.90
2023-02-03T02:37:05.800Z,50.00
2023-02-03T02:39:40.906Z,50.50
2023-02-03T02:42:16.308Z,49.80
2023-02-03T02:44:50.432Z,50.60
2023-02-03T02:47:21.303Z,51.10
2023-02-03T02:49:59.448Z,51.30
2023-02-03T02:52:31.019Z,51.10
2023-02-03T02:55:04.071Z,50.80
2023-02-03T02:57:35.089Z,50.40
2023-02-03T03:00:03.620Z,50.20
2023-02-03T03:02:35.534Z,49.10
2023-02-03T03:05:06.971Z,47.40
2023-02-03T03:07:44.697Z,46.90
2023-02-03T03:10:16.139Z,47.10
2023-02-03T03:12:49.907Z,47.70
2023-02-03T03:15:22.209Z,47.10
2023-02-03T03:17:57.187Z,46.80
2023-02-03T03:20:28.027Z,47.10
2023-02-03T03:22:59.899Z,48.00
2023-02-03T03:25:36.143Z,48.40
2023-02-03T03:28:09.684Z,48.90
2023-02-03T03:30:40.107Z,48.40
2023-02-03T03:33:10.384Z,47.60
2023-02-03T03:35:45.012Z,47.30
2023-02-03T03:38:19.928Z,47.20
2023-02-03T03:40:57.534Z,47.40
2023-02-03T03:43:29.467Z,47.20
2023-02-03T03:46:01.874Z,47.60
2023-02-03T03:48:35.309Z,46.60
2023-02-03T03:51:07.410Z,46.90
2023-02-03T03:53:38.671Z,47.90
2023-02-03T03:56:10.714Z,48.10
2023-02-03T03:58:41.845Z,49.00
2023-02-03T04:01:12.148Z,49.30
2023-02-03T04:03:45.917Z,48.90
2023-02-03T04:06:14.308Z,49.90
2023-02-03T04:08:42.279Z,48.80
2023-02-03T04:11:10.279Z,48.20
2023-02-03T04:13:38.293Z,48.90
2023-02-03T04:16:06.546Z,48.60
2023-02-03T04:18:34.476Z,48.30
2023-02-03T04:21:03.728Z,46.90
2023-02-03T04:23:31.646Z,46.70
2023-02-03T04:26:02.247Z,47.20
2023-02-03T04:28:30.165Z,46.90
2023-02-03T04:31:01.535Z,46.20
2023-02-03T04:33:29.553Z,46.10
2023-02-03T04:35:57.456Z,45.90
2023-02-03T04:38:26.717Z,46.20
2023-02-03T04:40:54.711Z,46.30
2023-02-03T04:43:22.663Z,45.90
2023-02-03T04:45:50.657Z,46.30
2023-02-03T04:48:18.631Z,47.30
2023-02-03T04:50:46.531Z,48.20
2023-02-03T04:53:15.978Z,48.80
2023-02-03T04:55:48.931Z,48.00
2023-02-03T04:58:16.843Z,48.50
2023-02-03T05:00:44.778Z,48.10
2023-02-03T05:03:12.860Z,48.60
2023-02-03T05:05:40.854Z,49.00
2023-02-03T05:08:08.775Z,48.40
2023-02-03T05:10:36.681Z,48.80
2023-02-03T05:13:06.143Z,49.90
2023-02-03T05:15:34.190Z,49.70
2023-02-03T05:18:02.085Z,49.80
2023-02-03T05:20:30.109Z,50.00
2023-02-03T05:22:59.173Z,49.50
2023-02-03T05:25:27.201Z,49.70
2023-02-03T05:27:55.155Z,48.90
2023-02-03T05:30:24.419Z,48.90
2023-02-03T05:32:52.352Z,48.60
2023-02-03T05:35:20.282Z,48.40
2023-02-03T05:37:48.988Z,48.10
2023-02-03T05:40:34.461Z,47.20
2023-02-03T05:43:02.427Z,46.70
2023-02-03T05:45:32.418Z,46.10
2023-02-03T05:48:02.459Z,45.70
2023-02-03T05:50:33.193Z,45.20
2023-02-03T05:53:09.275Z,45.10
2023-02-03T05:55:38.152Z,45.00
2023-02-03T05:58:06.262Z,45.00
2023-02-03T06:00:35.561Z,45.10
2023-02-03T06:03:18.224Z,45.20
2023-02-03T06:05:46.158Z,45.50
2023-02-03T06:08:14.102Z,44.90
2023-02-03T06:10:42.244Z,44.50
2023-02-03T06:13:11.875Z,44.10
2023-02-03T06:15:41.421Z,43.40
2023-02-03T06:18:11.474Z,42.70
2023-02-03T06:20:39.577Z,41.90
2023-02-03T06:23:07.507Z,41.70
2023-02-03T06:25:35.475Z,42.00
2023-02-03T06:28:03.478Z,41.90
2023-02-03T06:30:31.662Z,42.00
2023-02-03T06:33:01.042Z,41.40
2023-02-03T06:35:29.024Z,41.00
2023-02-03T06:37:56.959Z,41.00
2023-02-03T06:40:25.115Z,40.70
2023-02-03T06:42:53.252Z,40.50
2023-02-03T06:45:24.842Z,40.20
2023-02-03T06:47:53.131Z,40.00
2023-02-03T06:50:22.436Z,39.80
2023-02-03T06:52:51.438Z,39.50
2023-02-03T06:55:19.624Z,39.30
2023-02-03T06:57:49.189Z,39.10
2023-02-03T07:00:19.612Z,39.10
2023-02-03T07:02:47.823Z,38.70
2023-02-03T07:05:15.866Z,38.60
2023-02-03T07:07:45.141Z,38.80
2023-02-03T07:10:13.154Z,38.60
2023-02-03T07:12:41.094Z,38.60
2023-02-03T07:15:12.702Z,38.30
2023-02-03T07:17:40.663Z,38.40
2023-02-03T07:20:09.695Z,39.20
2023-02-03T07:22:38.687Z,39.60
2023-02-03T07:25:10.937Z,40.10
2023-02-03T07:27:38.903Z,40.50
2023-02-03T07:30:07.840Z,40.60
2023-02-03T07:32:35.851Z,40.30
2023-02-03T07:35:03.795Z,40.50
2023-02-03T07:37:31.699Z,40.90
2023-02-03T07:39:59.695Z,40.20
2023-02-03T07:42:28.921Z,39.80
2023-02-03T07:44:56.954Z,39.60
2023-02-03T07:47:24.952Z,39.80
2023-02-03T07:49:52.855Z,39.70
2023-02-03T07:52:22.030Z,39.70
2023-02-03T07:54:50.099Z,39.70
2023-02-03T07:57:18.023Z,39.50
2023-02-03T07:59:47.320Z,40.00
2023-02-03T08:02:15.250Z,39.80
2023-02-03T08:04:43.255Z,40.20
2023-02-03T08:07:12.210Z,39.60
2023-02-03T08:09:40.167Z,39.60
2023-02-03T08:12:08.404Z,39.60
2023-02-03T08:14:36.355Z,39.20
2023-02-03T08:17:05.593Z,38.80
2023-02-03T08:19:33.954Z,38.80
2023-02-03T08:22:02.071Z,38.30
2023-02-03T08:24:29.994Z,38.40
2023-02-03T08:26:58.149Z,38.30
2023-02-03T08:29:26.075Z,38.70
2023-02-03T08:31:55.002Z,38.80
2023-02-03T08:34:24.365Z,38.50
2023-02-03T08:36:52.332Z,38.30
2023-02-03T08:39:20.287Z,38.60
2023-02-03T08:41:48.297Z,38.70
2023-02-03T08:44:16.177Z,40.10
2023-02-03T08:46:44.177Z,40.00
2023-02-03T08:49:12.223Z,39.60
2023-02-03T08:51:41.564Z,40.40
2023-02-03T08:54:09.474Z,40.80
2023-02-03T08:56:37.468Z,40.90
2023-02-03T08:59:05.455Z,41.60
2023-02-03T09:01:33.421Z,42.00
2023-02-03T09:04:01.974Z,40.50
2023-02-03T09:06:38.675Z,40.50
2023-02-03T09:09:08.077Z,41.00
2023-02-03T09:11:35.983Z,41.10
2023-02-03T09:14:05.242Z,40.50
2023-02-03T09:16:34.721Z,40.90
2023-02-03T09:19:03.347Z,41.30
2023-02-03T09:21:36.103Z,41.40
2023-02-03T09:24:13.959Z,41.90
2023-02-03T09:26:41.903Z,40.80
2023-02-03T09:29:09.968Z,40.90
2023-02-03T09:31:38.209Z,40.60
2023-02-03T09:34:06.165Z,40.10
2023-02-03T09:36:34.592Z,39.60
2023-02-03T09:39:02.822Z,38.90
2023-02-03T09:41:51.139Z,39.50
2023-02-03T09:44:28.261Z,39.70
2023-02-03T09:47:01.579Z,39.40
2023-02-03T09:49:38.592Z,38.60
2023-02-03T09:52:13.820Z,39.90
2023-02-03T09:54:45.806Z,40.10
2023-02-03T09:57:21.722Z,41.80
2023-02-03T09:59:50.314Z,42.10
2023-02-03T10:02:30.060Z,42.20
2023-02-03T10:05:01.224Z,43.00
2023-02-03T10:07:35.529Z,43.00
2023-02-03T10:10:12.819Z,43.00
2023-02-03T10:13:01.489Z,43.30
2023-02-03T10:15:56.840Z,43.00
2023-02-03T10:18:28.927Z,43.40
2023-02-03T10:21:01.210Z,44.20
2023-02-03T10:23:32.532Z,43.80
2023-02-03T10:26:03.545Z,44.70
2023-02-03T10:28:38.868Z,44.20
2023-02-03T10:31:16.804Z,43.90
2023-02-03T10:33:46.923Z,43.90
2023-02-03T10:36:21.245Z,43.40
2023-02-03T10:38:59.200Z,44.50
2023-02-03T10:41:28.924Z,44.00
2023-02-03T10:43:59.178Z,44.20
2023-02-03T10:46:30.301Z,43.50
2023-02-03T10:48:58.844Z,43.30
2023-02-03T10:51:32.722Z,43.00
2023-02-03T10:54:01.614Z,43.30
2023-02-03T10:56:33.000Z,43.50
2023-02-03T10:59:02.839Z,43.40
2023-02-03T11:01:42.527Z,42.90
2023-02-03T11:04:26.724Z,42.60
2023-02-03T11:06:57.298Z,43.00
2023-02-03T11:09:32.892Z,43.10
2023-02-03T11:12:10.702Z,42.70
2023-02-03T11:14:43.071Z,42.80
2023-02-03T11:17:17.014Z,42.80
2023-02-03T11:19:47.334Z,42.70
2023-02-03T11:22:28.533Z,43.00
2023-02-03T11:24:57.463Z,42.40
2023-02-03T11:27:27.677Z,43.20
2023-02-03T11:30:11.042Z,42.50
2023-02-03T11:32:42.492Z,42.10
2023-02-03T11:35:18.585Z,42.00
2023-02-03T11:37:48.697Z,42.20
2023-02-03T11:40:28.315Z,42.00
2023-02-03T11:43:14.863Z,41.70
2023-02-03T11:45:46.630Z,41.90
2023-02-03T11:48:26.265Z,41.70
2023-02-03T11:51:01.749Z,41.60
2023-02-03T11:53:56.240Z,41.60
2023-02-03T11:56:36.177Z,41.60
2023-02-03T11:59:21.368Z,41.60
2023-02-03T12:02:16.127Z,41.60
2023-02-03T12:05:05.987Z,41.90
2023-02-03T12:07:54.569Z,42.00
2023-02-03T12:10:36.973Z,41.80
2023-02-03T12:13:18.954Z,42.10
2023-02-03T12:16:02.797Z,41.90
2023-02-03T12:18:48.994Z,41.80
2023-02-03T12:21:33.790Z,42.00
2023-02-03T12:24:08.726Z,42.00
2023-02-03T12:26:43.027Z,41.90
2023-02-03T12:29:15.585Z,42.50
2023-02-03T12:31:50.929Z,42.70
2023-02-03T12:34:25.902Z,42.40
2023-02-03T12:36:58.520Z,42.20
2023-02-03T12:39:33.785Z,42.20
2023-02-03T12:42:05.374Z,42.20
2023-02-03T12:44:43.158Z,42.20
2023-02-03T12:47:19.107Z,41.80
2023-02-03T12:49:53.569Z,42.40
2023-02-03T12:52:27.614Z,41.80
2023-02-03T12:55:08.343Z,41.70
2023-02-03T12:57:39.579Z,41.60
2023-02-03T13:00:26.896Z,41.70
2023-02-03T13:03:08.862Z,41.70
2023-02-03T13:05:44.521Z,41.70
2023-02-03T13:08:19.861Z,41.60
2023-02-03T13:10:51.335Z,41.70
2023-02-03T13:13:30.905Z,41.60
2023-02-03T13:16:01.036Z,41.60
2023-02-03T13:18:33.581Z,41.60
2023-02-03T13:21:02.987Z,41.40
2023-02-03T13:23:33.904Z,41.30
2023-02-03T13:26:22.844Z,41.20
2023-02-03T13:29:09.872Z,41.30
2023-02-03T13:31:53.777Z,41.20
2023-02-03T13:34:41.827Z,41.30
2023-02-03T13:37:31.848Z,41.40
2023-02-03T13:40:16.759Z,41.40
2023-02-03T13:42:48.340Z,41.40
2023-02-03T13:45:23.243Z,41.30
2023-02-03T13:47:53.640Z,41.20
2023-02-03T13:50:25.079Z,41.20
2023-02-03T13:53:04.015Z,41.20
2023-02-03T13:55:37.939Z,41.00
2023-02-03T13:58:07.769Z,41.00
2023-02-03T14:01:15.691Z,41.00
2023-02-03T14:03:49.629Z,41.00
2023-02-03T14:07:00.719Z,41.10
2023-02-03T14:09:46.567Z,41.00
2023-02-03T14:12:33.925Z,41.30
2023-02-03T14:15:17.546Z,41.30
2023-02-03T14:18:05.941Z,42.00
2023-02-03T14:20:47.830Z,41.50
2023-02-03T14:23:22.341Z,41.60
2023-02-03T14:25:55.338Z,41.50
2023-02-03T14:28:26.807Z,41.70
2023-02-03T14:31:10.856Z,41.60
2023-02-03T14:34:06.377Z,41.70
2023-02-03T14:36:54.876Z,41.60
2023-02-03T14:40:10.466Z,41.70
2023-02-03T14:43:19.920Z,41.70
2023-02-03T14:46:20.815Z,41.90
2023-02-03T14:49:04.707Z,42.10
2023-02-03T14:51:52.874Z,41.90
2023-02-03T14:54:38.996Z,42.90
2023-02-03T14:57:23.247Z,43.40
2023-02-03T14:59:58.654Z,43.10
2023-02-03T15:02:28.516Z,44.40
2023-02-03T15:05:30.312Z,46.60
2023-02-03T15:08:01.291Z,47.10
2023-02-03T15:10:33.863Z,47.80
2023-02-03T15:13:02.811Z,48.80
2023-02-03T15:15:37.273Z,49.20
2023-02-03T15:18:21.127Z,50.60
2023-02-03T15:20:54.372Z,50.90
2023-02-03T15:23:25.236Z,51.20
2023-02-03T15:25:57.860Z,52.20
2023-02-03T15:28:27.714Z,52.00
2023-02-03T15:31:03.515Z,51.90
2023-02-03T15:33:36.069Z,52.20
2023-02-03T15:36:10.157Z,53.70
2023-02-03T15:38:41.428Z,53.80
2023-02-03T15:41:17.902Z,53.80
2023-02-03T15:43:48.794Z,53.40
2023-02-03T15:46:24.160Z,53.80
2023-02-03T15:48:57.637Z,54.40
2023-02-03T15:51:32.092Z,54.80
2023-02-03T15:54:03.738Z,54.60
2023-02-03T15:56:37.768Z,54.60
2023-02-03T15:59:07.067Z,54.90
2023-02-03T16:01:36.423Z,54.90
2023-02-03T16:04:14.445Z,55.70
2023-02-03T16:06:45.999Z,56.10
2023-02-03T16:09:29.292Z,56.30
2023-02-03T16:12:06.943Z,56.60
2023-02-03T16:14:36.450Z,57.00
2023-02-03T16:17:06.853Z,57.00
2023-02-03T16:19:38.280Z,57.00
2023-02-03T16:22:21.391Z,57.10
2023-02-03T16:24:49.384Z,57.30
2023-02-03T16:27:33.798Z,57.50
2023-02-03T16:30:43.364Z,58.30
2023-02-03T16:33:35.338Z,59.00
2023-02-03T16:36:29.354Z,59.10
2023-02-03T16:39:16.154Z,58.50
2023-02-03T16:42:01.548Z,60.20
2023-02-03T16:44:46.992Z,61.50
2023-02-03T16:47:42.106Z,63.20
2023-02-03T16:50:38.684Z,64.40
2023-02-03T16:53:12.341Z,65.10
2023-02-03T16:55:40.383Z,64.50
2023-02-03T16:58:08.722Z,64.10
2023-02-03T17:00:36.832Z,64.80
2023-02-03T17:03:05.644Z,65.20
2023-02-03T17:05:37.930Z,66.00
2023-02-03T17:08:06.214Z,66.70
2023-02-03T17:10:35.108Z,67.40
2023-02-03T17:13:03.056Z,67.10
2023-02-03T17:15:31.603Z,66.60
2023-02-03T17:17:59.953Z,65.00
2023-02-03T17:20:27.990Z,63.00
2023-02-03T17:22:57.357Z,62.10
2023-02-03T17:25:25.259Z,62.60
2023-02-03T17:27:56.490Z,61.10
2023-02-03T17:30:24.505Z,61.80
2023-02-03T17:32:52.657Z,62.90
2023-02-03T17:35:20.582Z,64.00
2023-02-03T17:37:48.476Z,64.70
2023-02-03T17:54:13.808Z,64.40
2023-02-03T17:56:47.352Z,64.70
2023-02-03T17:59:17.958Z,65.00
2023-02-03T18:01:46.759Z,65.20
2023-02-03T18:04:15.091Z,64.50
2023-02-03T18:06:43.091Z,65.20
2023-02-03T18:09:13.998Z,64.70
2023-02-03T18:11:44.777Z,64.30
2023-02-03T18:14:14.926Z,63.70
2023-02-03T18:16:43.952Z,63.20
2023-02-03T18:19:15.105Z,63.20
2023-02-03T18:21:43.956Z,62.50
2023-02-03T18:24:13.981Z,61.70
2023-02-03T18:26:49.766Z,61.30
2023-02-03T18:29:18.557Z,61.70
2023-02-03T18:31:46.682Z,62.70
2023-02-03T18:34:15.720Z,62.40
2023-02-03T18:36:43.814Z,62.20
2023-02-03T18:39:12.730Z,61.00
2023-02-03T18:41:40.896Z,60.70
2023-02-03T18:44:10.316Z,61.10
2023-02-03T18:46:38.268Z,61.60
2023-02-03T18:49:11.027Z,62.50
2023-02-03T18:51:39.312Z,62.50
2023-02-03T18:54:07.234Z,62.50
2023-02-03T18:56:35.931Z,62.20
2023-02-03T18:59:08.488Z,63.00
2023-02-03T19:01:38.921Z,63.80
2023-02-03T19:04:07.433Z,63.30
2023-02-03T19:06:36.435Z,63.10
2023-02-03T19:09:05.406Z,62.30
2023-02-03T19:11:34.970Z,62.00
2023-02-03T19:14:03.034Z,59.80
2023-02-03T19:16:31.213Z,59.40
2023-02-03T19:19:01.880Z,60.20
2023-02-03T19:21:29.797Z,60.00
2023-02-03T19:23:57.775Z,60.50
2023-02-03T19:26:27.642Z,60.40
2023-02-03T19:28:58.476Z,59.10
2023-02-03T19:31:26.578Z,59.10
2023-02-03T19:33:54.693Z,58.30
2023-02-03T19:36:23.954Z,56.90
2023-02-03T19:38:52.082Z,56.30
2023-02-03T19:41:20.190Z,56.60
2023-02-03T19:43:51.848Z,56.70
2023-02-03T19:46:21.760Z,57.10
2023-02-03T19:48:50.034Z,58.30
2023-02-03T19:51:18.090Z,58.70
2023-02-03T19:53:47.427Z,59.00
2023-02-03T19:56:15.805Z,59.20
2023-02-03T19:58:45.875Z,59.00
2023-02-03T20:01:15.582Z,58.50
2023-02-03T20:03:43.923Z,57.40
2023-02-03T20:06:12.078Z,56.80
2023-02-03T20:08:40.527Z,57.50
2023-02-03T20:11:14.787Z,57.50
2023-02-03T20:13:43.415Z,58.70
2023-02-03T20:16:11.558Z,57.70
2023-02-03T20:18:42.186Z,57.40
2023-02-03T20:21:10.518Z,58.00
2023-02-03T20:23:38.736Z,58.50
2023-02-03T20:26:07.097Z,58.50
2023-02-03T20:28:36.425Z,59.10
2023-02-03T20:31:05.248Z,59.30
2023-02-03T20:33:33.314Z,59.50
2023-02-03T20:36:01.226Z,60.00
2023-02-03T20:38:29.461Z,60.90
2023-02-03T20:40:57.373Z,60.50
2023-02-03T20:43:27.880Z,59.00
2023-02-03T20:45:57.142Z,58.00
2023-02-03T20:48:25.631Z,57.70
2023-02-03T20:50:53.990Z,57.90
2023-02-03T20:53:24.015Z,57.50
2023-02-03T20:55:52.910Z,57.50
2023-02-03T20:58:25.209Z,57.70
2023-02-03T21:00:57.089Z,57.20
2023-02-03T21:03:45.098Z,58.10
2023-02-03T21:06:15.017Z,58.10
2023-02-03T21:08:43.682Z,58.20
2023-02-03T21:11:13.290Z,57.40
2023-02-03T21:13:43.414Z,57.40
2023-02-03T21:16:17.864Z,57.80
2023-02-03T21:18:49.698Z,58.30
2023-02-03T21:21:24.685Z,58.80
2023-02-03T21:23:53.512Z,59.10
2023-02-03T21:26:23.288Z,58.70
2023-02-03T21:28:53.028Z,58.50
2023-02-03T21:31:27.274Z,57.80
2023-02-03T21:33:57.960Z,57.30
2023-02-03T21:36:28.144Z,57.50
2023-02-03T21:38:59.059Z,58.20
2023-02-03T21:41:33.205Z,59.30
2023-02-03T21:44:01.312Z,59.80
2023-02-03T21:46:33.187Z,60.60
2023-02-03T21:49:03.664Z,61.80
2023-02-03T21:51:36.240Z,62.50
2023-02-03T21:54:17.875Z,62.10
2023-02-03T21:56:45.913Z,63.50
2023-02-03T21:59:17.698Z,64.20
2023-02-03T22:01:47.224Z,64.60
2023-02-03T22:04:16.771Z,63.00
2023-02-03T22:06:46.914Z,62.30
2023-02-03T22:09:16.793Z,61.50
2023-02-03T22:11:45.154Z,60.70
2023-02-03T22:14:17.276Z,60.50
2023-02-03T22:16:45.605Z,60.40
2023-02-03T22:19:13.786Z,58.50
2023-02-03T22:21:43.082Z,58.20
2023-02-03T22:24:11.030Z,57.60
2023-02-03T22:26:39.340Z,57.40
2023-02-03T22:29:07.261Z,57.70
2023-02-03T22:31:35.358Z,57.00
2023-02-03T22:34:03.406Z,57.50
2023-02-03T22:36:31.328Z,57.30
2023-02-03T22:39:00.587Z,57.30
2023-02-03T22:41:28.496Z,57.10
2023-02-03T22:43:56.411Z,57.10
2023-02-03T22:46:24.399Z,58.00
2023-02-03T22:48:52.345Z,58.90
2023-02-03T22:51:20.249Z,58.60
2023-02-03T22:53:48.239Z,58.40
2023-02-03T22:56:17.505Z,57.90
2023-02-03T22:58:45.509Z,57.30
2023-02-03T23:01:13.479Z,56.70
2023-02-03T23:03:41.378Z,55.80
2023-02-03T23:06:09.300Z,55.20
2023-02-03T23:08:37.199Z,55.30
2023-02-03T23:11:05.238Z,54.80
2023-02-03T23:13:34.522Z,54.80
2023-02-03T23:16:02.464Z,55.00
2023-02-03T23:18:33.688Z,55.30
2023-02-03T23:21:01.591Z,56.20
2023-02-03T23:23:31.169Z,56.60
2023-02-03T23:25:59.078Z,57.20
2023-02-03T23:28:27.005Z,56.40
2023-02-03T23:30:56.720Z,56.10
2023-02-03T23:33:24.724Z,55.80
2023-02-03T23:35:55.288Z,55.60
2023-02-03T23:38:23.203Z,55.60
2023-02-03T23:40:51.388Z,55.90
2023-02-03T23:43:19.287Z,55.60
2023-02-03T23:45:47.482Z,56.50
2023-02-03T23:48:17.656Z,57.50
2023-02-03T23:50:45.569Z,57.80
2023-02-03T23:53:13.501Z,57.60
2023-02-03T23:55:41.408Z,57.30
2023-02-03T23:58:09.403Z,58.30
